Time;durP1;ratioP1;P1;durP2;ratioP2;P2;SDS_P1;SDS_P2;PMS_P1;PMS_P2;Temp;Humidity;BMP_temperature;BMP_pressure;BME280_temperature;BME280_humidity;BME280_pressure;Samples;Min_cycle;Max_cycle;Signal;HPM_P1;HPM_P2
2021/08/31 00:01:37;;;;;;;16.80;9.88;;;;;;;14.26;78.37;101051.00;8605437;34;20237;-71
2021/08/31 00:06:41;;;;;;;16.40;10.90;;;;;;;14.10;78.84;101058.72;8604235;34;20737;-71
2021/08/31 00:11:45;;;;;;;18.27;10.00;;;;;;;14.01;79.06;101054.94;8604569;34;20232;-71
2021/08/31 00:16:49;;;;;;;17.90;11.40;;;;;;;13.90;79.42;101063.09;8603565;34;20177;-71
2021/08/31 00:21:52;;;;;;;16.52;10.65;;;;;;;14.10;78.68;101061.41;8604034;34;20196;-71
2021/08/31 00:26:56;;;;;;;17.98;11.15;;;;;;;14.12;77.94;101065.72;8603433;34;20225;-71
2021/08/31 00:31:59;;;;;;;17.65;10.65;;;;;;;14.21;78.12;101061.34;8603593;34;20738;-70
2021/08/31 00:37:03;;;;;;;15.05;10.70;;;;;;;14.22;78.42;101062.19;8603530;34;20181;-71
2021/08/31 00:42:07;;;;;;;16.40;11.18;;;;;;;14.19;77.87;101060.63;8603566;34;20181;-71
2021/08/31 00:47:10;;;;;;;15.63;11.07;;;;;;;14.21;78.11;101052.41;8603166;34;20181;-71
2021/08/31 00:52:13;;;;;;;17.88;11.65;;;;;;;14.18;78.12;101060.72;8603330;34;20208;-71
2021/08/31 00:57:19;;;;;;;17.38;12.13;;;;;;;14.09;78.03;101051.59;8602721;34;20166;-71
2021/08/31 01:02:22;;;;;;;17.95;11.68;;;;;;;14.07;78.39;101061.66;8602975;34;20752;-71
2021/08/31 01:07:25;;;;;;;18.25;11.88;;;;;;;14.06;78.09;101062.66;8602389;34;20196;-71
2021/08/31 01:12:30;;;;;;;19.30;12.32;;;;;;;13.99;78.29;101051.53;8602185;34;20691;-71
2021/08/31 01:17:34;;;;;;;21.92;12.90;;;;;;;13.96;78.69;101053.59;8602458;34;20238;-70
2021/08/31 01:22:37;;;;;;;20.08;12.85;;;;;;;13.78;78.96;101054.19;8602556;34;20429;-71
2021/08/31 01:27:42;;;;;;;22.52;13.43;;;;;;;13.85;79.15;101051.81;8601997;34;20149;-71
2021/08/31 01:32:45;;;;;;;20.92;14.43;;;;;;;13.49;80.39;101043.09;8602188;34;20657;-70
2021/08/31 01:37:48;;;;;;;24.42;15.13;;;;;;;13.74;79.95;101047.34;8601826;34;20324;-71
2021/08/31 01:42:52;;;;;;;24.58;15.32;;;;;;;13.60;80.40;101050.31;8603618;34;20422;-71
2021/08/31 01:47:55;;;;;;;22.52;15.05;;;;;;;13.49;80.34;101046.69;8601450;34;20255;-71
2021/08/31 01:52:59;;;;;;;23.35;14.60;;;;;;;13.41;80.79;101053.69;8602003;34;20187;-70
2021/08/31 01:58:04;;;;;;;27.30;16.50;;;;;;;13.31;81.04;101055.41;8601802;34;20308;-71
2021/08/31 02:03:07;;;;;;;25.67;17.20;;;;;;;13.15;81.71;101055.81;8601816;34;20200;-71
2021/08/31 02:08:11;;;;;;;27.65;17.55;;;;;;;13.18;81.49;101066.34;8601471;34;20189;-70
2021/08/31 02:13:15;;;;;;;28.55;17.90;;;;;;;13.15;81.75;101064.75;8601295;34;20189;-71
2021/08/31 02:18:18;;;;;;;26.92;17.20;;;;;;;13.05;82.01;101069.16;8600984;34;20632;-70
2021/08/31 02:23:21;;;;;;;30.58;17.33;;;;;;;12.97;82.04;101075.19;8601412;34;20169;-71
2021/08/31 02:28:26;;;;;;;29.95;18.35;;;;;;;12.72;83.84;101078.97;8600647;34;20204;-71
2021/08/31 02:33:29;;;;;;;31.40;17.50;;;;;;;12.95;83.03;101074.47;8600636;34;20267;-70
2021/08/31 02:38:33;;;;;;;28.90;17.35;;;;;;;13.09;82.98;101083.28;8600546;34;21610;-70
2021/08/31 02:43:37;;;;;;;32.92;18.15;;;;;;;13.18;82.44;101091.47;8600519;34;20842;-70
2021/08/31 02:48:40;;;;;;;29.08;18.02;;;;;;;13.23;82.37;101075.78;8600460;34;20658;-70
2021/08/31 02:53:43;;;;;;;30.48;17.25;;;;;;;13.25;82.12;101084.59;8600514;34;20185;-70
2021/08/31 02:58:48;;;;;;;30.08;18.27;;;;;;;13.26;81.97;101086.31;8600358;34;20606;-70
2021/08/31 03:03:51;;;;;;;31.42;18.77;;;;;;;13.20;81.63;101086.81;8601449;34;20684;-70
2021/08/31 03:08:54;;;;;;;27.48;17.35;;;;;;;12.90;82.29;101084.75;8605743;34;20728;-70
2021/08/31 03:13:58;;;;;;;27.95;17.13;;;;;;;12.66;83.36;101084.00;8600273;34;20463;-71
2021/08/31 03:19:01;;;;;;;36.03;18.67;;;;;;;12.72;83.76;101091.59;8600745;34;20172;-71
2021/08/31 03:24:05;;;;;;;34.10;19.30;;;;;;;12.74;83.63;101087.81;8599480;34;22078;-71
2021/08/31 03:29:10;;;;;;;31.80;20.02;;;;;;;12.55;84.39;101092.91;8600115;34;20930;-71
2021/08/31 03:34:14;;;;;;;33.40;20.55;;;;;;;12.41;85.13;101093.16;8599621;34;20683;-71
2021/08/31 03:39:17;;;;;;;39.33;22.60;;;;;;;12.50;84.84;101089.72;8605551;34;20191;-72
2021/08/31 03:44:21;;;;;;;44.03;22.40;;;;;;;12.38;85.09;101094.25;8605785;34;20233;-70
2021/08/31 03:49:24;;;;;;;48.08;24.38;;;;;;;12.47;85.25;101098.06;8604702;34;20274;-71
2021/08/31 03:54:27;;;;;;;50.65;25.60;;;;;;;12.53;85.12;101109.22;8604242;34;20210;-70
2021/08/31 03:59:32;;;;;;;53.47;25.85;;;;;;;12.68;84.34;101109.00;8604804;34;20146;-70
2021/08/31 04:04:35;;;;;;;65.60;28.30;;;;;;;12.58;85.03;101117.78;8603888;34;21458;-70
2021/08/31 04:09:38;;;;;;;81.38;28.40;;;;;;;12.75;84.74;101115.59;8605234;34;20193;-70
2021/08/31 04:14:44;;;;;;;60.80;27.88;;;;;;;12.79;84.88;101119.78;8604476;34;20769;-70
2021/08/31 04:19:47;;;;;;;64.75;28.40;;;;;;;12.70;84.70;101110.59;8605056;34;20154;-71
2021/08/31 04:24:50;;;;;;;60.78;27.23;;;;;;;12.56;85.37;101108.09;8605175;34;20682;-71
2021/08/31 04:29:55;;;;;;;53.75;27.27;;;;;;;12.40;86.48;101111.16;8604665;34;20154;-71
2021/08/31 04:35:02;;;;;;;65.10;30.48;;;;;;;12.64;86.40;101115.59;8603870;34;20189;-71
2021/08/31 04:40:07;;;;;;;59.75;30.10;;;;;;;12.59;86.01;101116.84;8603975;34;20700;-70
2021/08/31 04:45:12;;;;;;;56.20;28.25;;;;;;;12.87;85.01;101125.44;8604467;34;20223;-70
2021/08/31 04:50:15;;;;;;;52.63;28.13;;;;;;;12.87;85.17;101133.53;8603573;34;20468;-71
2021/08/31 04:55:19;;;;;;;59.78;28.08;;;;;;;13.02;84.69;101137.69;8603325;34;20188;-71
2021/08/31 05:00:24;;;;;;;59.08;29.92;;;;;;;13.03;84.14;101133.19;8603446;34;20192;-69
2021/08/31 05:05:27;;;;;;;63.72;28.38;;;;;;;12.84;84.77;101139.16;8603415;34;20193;-71
2021/08/31 05:10:31;;;;;;;56.92;27.67;;;;;;;12.88;84.51;101140.63;8603592;34;20610;-71
2021/08/31 05:15:36;;;;;;;52.97;24.17;;;;;;;12.80;84.75;101148.47;8603154;34;20255;-71
2021/08/31 05:20:40;;;;;;;55.80;27.48;;;;;;;12.80;84.88;101145.75;8603128;34;20201;-71
2021/08/31 05:25:43;;;;;;;50.15;25.55;;;;;;;12.96;84.87;101154.38;8603476;34;20286;-71
2021/08/31 05:30:47;;;;;;;53.33;25.80;;;;;;;13.12;84.35;101162.09;8603087;34;20216;-71
2021/08/31 05:35:50;;;;;;;47.03;23.75;;;;;;;13.08;84.61;101151.66;8602422;34;20256;-71
2021/08/31 05:40:53;;;;;;;44.20;21.95;;;;;;;13.13;84.41;101157.56;8605155;34;20868;-71
2021/08/31 05:45:58;;;;;;;48.22;22.95;;;;;;;13.34;83.91;101169.34;8602497;34;20181;-72
2021/08/31 05:51:02;;;;;;;41.42;21.92;;;;;;;13.32;83.96;101163.19;8603689;34;20195;-71
2021/08/31 05:56:06;;;;;;;43.22;21.17;;;;;;;13.40;83.53;101166.16;8602216;34;20136;-71
2021/08/31 06:01:10;;;;;;;47.88;22.10;;;;;;;13.27;83.23;101169.00;8602038;34;20757;-70
2021/08/31 06:06:15;;;;;;;46.15;22.80;;;;;;;13.70;82.83;101173.63;8602551;34;20588;-71
2021/08/31 06:11:21;;;;;;;41.30;21.70;;;;;;;13.48;82.38;101176.34;8602799;34;20185;-71
2021/08/31 06:16:25;;;;;;;46.35;24.33;;;;;;;13.50;81.79;101182.50;8601817;34;20484;-71
2021/08/31 06:21:29;;;;;;;50.40;23.38;;;;;;;13.63;81.51;101180.53;8602357;34;20362;-72
2021/08/31 06:26:32;;;;;;;42.85;21.88;;;;;;;13.68;81.16;101182.81;8601617;34;20470;-71
2021/08/31 06:31:36;;;;;;;41.92;20.40;;;;;;;13.56;80.88;101182.00;8601787;34;20443;-71
2021/08/31 06:36:39;;;;;;;40.53;20.70;;;;;;;13.62;80.96;101189.59;8601331;34;20192;-71
2021/08/31 06:41:43;;;;;;;44.25;21.65;;;;;;;14.01;79.79;101192.69;8601137;34;20200;-72
2021/08/31 06:46:47;;;;;;;39.92;19.30;;;;;;;13.55;81.24;101193.78;8601187;34;20280;-70
2021/08/31 06:51:50;;;;;;;34.42;17.70;;;;;;;13.86;80.32;101197.53;8601325;34;20796;-72
2021/08/31 06:56:53;;;;;;;31.60;17.60;;;;;;;14.48;79.21;101200.53;8600602;34;20146;-72
2021/08/31 07:01:58;;;;;;;30.00;15.50;;;;;;;14.76;78.10;101216.13;8600795;34;20191;-71
2021/08/31 07:07:01;;;;;;;35.92;18.48;;;;;;;14.90;76.31;101212.25;8600352;34;20185;-72
2021/08/31 07:12:05;;;;;;;35.40;18.00;;;;;;;14.79;76.55;101217.72;8600415;34;21475;-72
2021/08/31 07:17:10;;;;;;;30.33;16.70;;;;;;;14.55;76.28;101226.06;8599971;34;21049;-72
2021/08/31 07:22:13;;;;;;;27.50;15.45;;;;;;;14.37;76.60;101217.63;8600228;34;20748;-72
2021/08/31 07:27:16;;;;;;;31.30;16.75;;;;;;;15.25;75.46;101227.28;8605663;34;20187;-71
2021/08/31 07:32:21;;;;;;;32.58;17.52;;;;;;;15.51;73.51;101235.81;8601727;34;20208;-72
2021/08/31 07:37:24;;;;;;;28.40;15.77;;;;;;;15.59;73.46;101240.56;8599758;34;20236;-72
2021/08/31 07:42:27;;;;;;;27.90;15.65;;;;;;;15.70;73.30;101235.88;8602252;34;21920;-72
2021/08/31 07:47:32;;;;;;;22.55;14.10;;;;;;;15.96;72.45;101243.50;8599831;34;20559;-72
2021/08/31 07:52:37;;;;;;;22.20;13.85;;;;;;;16.45;70.41;101236.34;8599723;34;20149;-72
2021/08/31 07:57:40;;;;;;;22.55;13.60;;;;;;;16.87;68.96;101236.06;8599503;34;20181;-71
2021/08/31 08:02:45;;;;;;;21.40;12.98;;;;;;;17.00;68.11;101244.75;8600114;34;20688;-71
2021/08/31 08:07:48;;;;;;;20.40;12.18;;;;;;;16.90;66.57;101243.06;8599527;34;20396;-72
2021/08/31 08:12:52;;;;;;;19.92;13.18;;;;;;;17.15;66.42;101244.31;8600185;34;20195;-72
2021/08/31 08:17:56;;;;;;;18.40;12.20;;;;;;;17.27;66.03;101239.56;8598437;34;20193;-72
2021/08/31 08:23:00;;;;;;;18.67;12.82;;;;;;;17.24;65.42;101244.28;8602575;34;20185;-72
2021/08/31 08:28:03;;;;;;;18.95;12.55;;;;;;;17.65;63.98;101246.72;8604664;34;20181;-72
2021/08/31 08:33:08;;;;;;;17.85;11.60;;;;;;;18.15;62.73;101251.75;8605105;34;20502;-71
2021/08/31 08:38:11;;;;;;;16.90;11.15;;;;;;;18.57;60.21;101256.63;8604051;34;20189;-71
2021/08/31 08:43:15;;;;;;;18.33;11.55;;;;;;;18.26;61.50;101262.41;8604679;34;21500;-72
2021/08/31 08:48:21;;;;;;;15.68;10.60;;;;;;;18.28;58.74;101260.41;8604488;34;20736;-71
2021/08/31 08:53:26;;;;;;;16.23;11.73;;;;;;;18.44;59.61;101257.00;8604773;34;20686;-72
2021/08/31 08:58:30;;;;;;;17.25;10.48;;;;;;;17.94;61.32;101254.72;8603944;34;21757;-71
2021/08/31 09:03:36;;;;;;;14.75;9.80;;;;;;;18.30;60.66;101263.00;8604714;34;20658;-71
2021/08/31 09:08:43;;;;;;;17.08;10.75;;;;;;;19.12;57.84;101264.59;8603848;34;20189;-72
2021/08/31 09:13:46;;;;;;;14.23;8.90;;;;;;;19.54;57.75;101265.72;8603816;34;20185;-72
2021/08/31 09:18:55;;;;;;;15.80;10.25;;;;;;;20.21;54.97;101260.38;8602586;34;20397;-71
2021/08/31 09:24:00;;;;;;;15.25;10.00;;;;;;;19.47;57.80;101268.22;8602920;34;20855;-71
2021/08/31 09:29:12;;;;;;;13.10;9.07;;;;;;;19.39;56.23;101268.16;8603113;34;20243;-72
2021/08/31 09:34:42;;;;;;;16.13;9.73;;;;;;;19.12;57.96;101269.19;8602192;34;20152;-72
2021/08/31 09:39:45;;;;;;;11.48;8.75;;;;;;;19.45;57.23;101267.53;8604904;34;20215;-72
2021/08/31 09:45:00;;;;;;;15.27;9.15;;;;;;;18.33;56.94;101270.84;8603050;34;20185;-71
2021/08/31 09:50:07;;;;;;;13.68;9.00;;;;;;;19.51;56.04;101264.16;8602749;34;20263;-71
2021/08/31 09:55:21;;;;;;;11.82;9.05;;;;;;;19.53;55.69;101264.88;8603027;34;20137;-72
2021/08/31 10:00:24;;;;;;;14.70;9.43;;;;;;;21.32;53.69;101257.25;8600626;34;20255;-72
2021/08/31 10:05:30;;;;;;;11.55;8.93;;;;;;;21.92;50.95;101256.72;8601955;34;20491;-72
2021/08/31 10:10:35;;;;;;;10.60;8.57;;;;;;;22.32;49.50;101252.03;8602037;34;20933;-72
2021/08/31 10:15:44;;;;;;;13.85;10.15;;;;;;;22.50;50.75;101254.53;8601733;34;20238;-72
2021/08/31 10:20:52;;;;;;;11.68;9.30;;;;;;;22.15;48.77;101261.41;8601749;34;20262;-72
2021/08/31 10:26:28;;;;;;;14.32;10.10;;;;;;;22.40;50.49;101252.00;8594593;34;20845;-71
2021/08/31 10:31:33;;;;;;;12.93;9.52;;;;;;;22.80;48.67;101257.41;8595166;34;20951;-72
2021/08/31 10:36:39;;;;;;;12.88;9.18;;;;;;;23.55;47.89;101260.09;8592734;34;21463;-72
2021/08/31 10:41:47;;;;;;;12.98;9.50;;;;;;;23.59;45.61;101261.41;8597291;34;20185;-72
2021/08/31 10:47:13;;;;;;;14.07;9.27;;;;;;;23.58;47.47;101256.97;8595110;34;20320;-72
2021/08/31 10:52:33;;;;;;;12.60;8.85;;;;;;;23.54;47.37;101258.38;8597623;34;20279;-72
2021/08/31 10:57:43;;;;;;;10.75;8.50;;;;;;;23.37;46.85;101259.63;8596021;34;20910;-71
2021/08/31 11:02:53;;;;;;;13.80;9.05;;;;;;;23.97;46.60;101258.59;8596336;34;20686;-72
2021/08/31 11:08:16;;;;;;;11.80;8.05;;;;;;;24.27;45.50;101253.00;8594636;34;20189;-72
2021/08/31 11:13:21;;;;;;;11.25;8.40;;;;;;;25.15;43.64;101254.56;8578186;34;20195;-72
2021/08/31 11:18:24;;;;;;;11.70;7.90;;;;;;;25.92;40.70;101260.09;8601527;34;21482;-73
2021/08/31 11:23:33;;;;;;;12.65;7.93;;;;;;;23.48;46.42;101263.75;8593101;33;21165;-72
2021/08/31 11:28:37;;;;;;;8.80;7.18;;;;;;;24.89;43.10;101251.56;8600303;34;20299;-72
2021/08/31 11:33:43;;;;;;;10.40;7.40;;;;;;;26.70;40.92;101238.50;8600956;34;20181;-72
2021/08/31 11:38:50;;;;;;;8.32;6.72;;;;;;;27.47;39.76;101247.22;8602102;34;20227;-72
2021/08/31 11:43:56;;;;;;;8.88;6.70;;;;;;;26.14;39.70;101238.78;8577841;34;20185;-72
2021/08/31 11:49:08;;;;;;;9.77;7.32;;;;;;;24.81;43.74;101251.69;8603068;34;20848;-72
2021/08/31 11:54:14;;;;;;;11.32;6.90;;;;;;;26.60;40.40;101243.59;8601937;34;20247;-71
2021/08/31 11:59:38;;;;;;;8.45;6.70;;;;;;;24.06;44.25;101264.81;8604332;34;20231;-71
2021/08/31 12:04:41;;;;;;;11.02;6.40;;;;;;;22.78;46.92;101269.38;8605085;34;20261;-72
2021/08/31 12:09:48;;;;;;;9.40;7.25;;;;;;;25.46;40.82;101253.28;8581345;34;20156;-71
2021/08/31 12:14:53;;;;;;;7.38;6.22;;;;;;;27.55;39.32;101263.53;8604928;34;20258;-72
2021/08/31 12:20:09;;;;;;;8.68;6.32;;;;;;;29.57;35.10;101252.69;8604980;34;20731;-72
2021/08/31 12:25:18;;;;;;;7.03;5.75;;;;;;;27.62;37.16;101258.84;8603255;34;20849;-72
2021/08/31 12:30:36;;;;;;;8.05;6.20;;;;;;;25.17;41.67;101257.09;8605288;34;20765;-72
2021/08/31 12:35:42;;;;;;;9.20;6.47;;;;;;;23.67;44.98;101257.75;8605640;34;20188;-72
2021/08/31 12:41:05;;;;;;;6.97;6.18;;;;;;;26.42;38.64;101249.72;8605098;34;20549;-72
2021/08/31 12:46:09;;;;;;;7.72;6.20;;;;;;;25.59;41.69;101255.28;8605699;34;20184;-72
2021/08/31 12:51:12;;;;;;;7.95;5.78;;;;;;;24.25;42.81;101260.59;8604725;34;20188;-71
2021/08/31 12:56:17;;;;;;;9.15;6.53;;;;;;;23.37;45.79;101259.63;8604460;34;20241;-72
2021/08/31 13:01:22;;;;;;;6.32;5.68;;;;;;;25.75;41.63;101252.19;8604224;34;20193;-72
2021/08/31 13:06:33;;;;;;;8.30;4.85;;;;;;;28.70;35.24;101238.78;8604490;34;20193;-72
2021/08/31 13:11:41;;;;;;;6.88;5.45;;;;;;;29.83;34.24;101237.69;8572487;34;20197;-72
2021/08/31 13:16:46;;;;;;;5.57;4.72;;;;;;;31.99;31.02;101228.97;8596786;34;20193;-71
2021/08/31 13:21:50;;;;;;;5.65;5.00;;;;;;;31.07;32.15;101220.50;8603744;34;21053;-72
2021/08/31 13:26:55;;;;;;;5.70;4.90;;;;;;;28.88;33.81;101219.50;8602886;34;20516;-72
2021/08/31 13:31:58;;;;;;;5.85;5.00;;;;;;;28.17;35.01;101217.88;8603773;34;20173;-71
2021/08/31 13:37:01;;;;;;;5.22;4.72;;;;;;;27.30;37.56;101216.47;8604721;34;20283;-69
2021/08/31 13:42:09;;;;;;;5.63;4.75;;;;;;;27.28;37.79;101226.84;8604041;34;20691;-72
2021/08/31 13:47:12;;;;;;;5.88;5.03;;;;;;;27.53;36.31;101214.06;8602972;34;20220;-71
2021/08/31 13:52:15;;;;;;;5.57;4.65;;;;;;;27.83;35.49;101202.50;8603482;34;20279;-72
2021/08/31 13:57:19;;;;;;;6.10;4.50;;;;;;;28.56;36.34;101202.13;8602823;34;20640;-72
2021/08/31 14:02:22;;;;;;;5.90;4.60;;;;;;;27.94;35.42;101195.44;8603634;34;20412;-74
2021/08/31 14:07:26;;;;;;;6.72;4.93;;;;;;;25.47;39.29;101199.97;8600895;34;20189;-73
2021/08/31 14:12:30;;;;;;;6.07;4.40;;;;;;;24.22;42.02;101206.09;8601556;34;20173;-73
2021/08/31 14:17:33;;;;;;;5.20;4.55;;;;;;;24.60;40.06;101192.13;8597960;34;20130;-73
2021/08/31 14:22:36;;;;;;;5.47;4.47;;;;;;;24.47;41.36;101199.19;8600625;34;20255;-72
2021/08/31 14:27:41;;;;;;;8.65;5.28;;;;;;;25.13;40.32;101190.66;8596910;34;20196;-72
2021/08/31 14:32:45;;;;;;;7.43;5.38;;;;;;;24.03;42.36;101205.69;8603041;34;20162;-72
2021/08/31 14:37:48;;;;;;;6.13;4.68;;;;;;;26.08;39.72;101196.41;8601551;34;20702;-72
2021/08/31 14:42:52;;;;;;;6.60;4.95;;;;;;;26.07;39.66;101189.22;8602023;34;20289;-72
2021/08/31 14:47:55;;;;;;;6.47;4.88;;;;;;;25.88;39.29;101184.50;8601661;34;20196;-72
2021/08/31 14:52:58;;;;;;;6.68;4.82;;;;;;;26.18;37.75;101179.50;8602644;34;20296;-72
2021/08/31 14:58:03;;;;;;;5.25;4.45;;;;;;;25.97;37.80;101178.63;8601681;34;20188;-71
2021/08/31 15:03:06;;;;;;;5.05;4.53;;;;;;;24.08;42.10;101184.00;8601292;34;21260;-72
2021/08/31 15:08:09;;;;;;;6.57;5.18;;;;;;;24.74;42.08;101188.47;8601145;34;20189;-72
2021/08/31 15:13:14;;;;;;;5.70;4.70;;;;;;;25.52;39.36;101191.09;8601552;34;20602;-72
2021/08/31 15:18:18;;;;;;;5.53;4.63;;;;;;;26.19;37.48;101173.81;8602349;34;20728;-72
2021/08/31 15:23:21;;;;;;;6.38;4.50;;;;;;;26.47;37.84;101176.41;8601783;34;20243;-73
2021/08/31 15:28:25;;;;;;;5.07;4.18;;;;;;;26.24;38.00;101168.53;8601781;34;20195;-72
2021/08/31 15:33:28;;;;;;;7.28;4.60;;;;;;;26.28;37.20;101180.84;8607106;34;20553;-72
2021/08/31 15:38:31;;;;;;;5.20;4.20;;;;;;;26.03;37.35;101168.69;8607042;34;20445;-72
2021/08/31 15:43:36;;;;;;;4.78;4.20;;;;;;;26.07;36.83;101167.19;8582752;34;20185;-72
2021/08/31 15:48:39;;;;;;;5.35;3.88;;;;;;;25.48;37.77;101163.16;8603004;34;20185;-72
2021/08/31 15:53:43;;;;;;;4.30;3.80;;;;;;;25.56;37.03;101165.75;8604285;34;20841;-72
2021/08/31 15:58:47;;;;;;;6.63;4.30;;;;;;;25.28;38.25;101167.69;8606886;34;20181;-72
2021/08/31 16:03:50;;;;;;;4.72;3.92;;;;;;;24.00;39.78;101166.81;8608801;34;21187;-72
2021/08/31 16:08:53;;;;;;;5.30;4.07;;;;;;;23.75;40.29;101169.88;8605841;34;20347;-72
2021/08/31 16:13:58;;;;;;;4.75;3.58;;;;;;;23.26;42.24;101178.72;8581486;34;20620;-71
2021/08/31 16:19:01;;;;;;;4.93;4.15;;;;;;;24.22;40.48;101165.78;8606922;34;20702;-72
2021/08/31 16:24:05;;;;;;;4.93;3.97;;;;;;;24.19;40.40;101171.66;8605397;34;20848;-73
2021/08/31 16:29:10;;;;;;;5.13;3.65;;;;;;;24.53;40.35;101167.34;8605636;34;20567;-71
2021/08/31 16:34:14;;;;;;;6.03;4.15;;;;;;;23.54;41.08;101178.03;8605162;34;20185;-71
2021/08/31 16:39:17;;;;;;;5.82;3.90;;;;;;;24.16;41.78;101171.16;8605123;34;20840;-72
2021/08/31 16:44:22;;;;;;;6.65;4.30;;;;;;;24.22;41.77;101167.66;8606325;34;20199;-72
2021/08/31 16:49:25;;;;;;;4.63;3.90;;;;;;;24.14;41.57;101171.38;8606219;34;20192;-72
2021/08/31 16:54:28;;;;;;;5.30;4.00;;;;;;;23.53;43.07;101168.97;8605854;34;20192;-72
2021/08/31 16:59:32;;;;;;;6.13;4.07;;;;;;;23.33;43.30;101170.56;8606649;34;20964;-71
2021/08/31 17:04:36;;;;;;;5.35;4.60;;;;;;;23.40;44.02;101180.59;8606509;34;20183;-72
2021/08/31 17:09:39;;;;;;;7.50;4.07;;;;;;;23.04;44.64;101188.69;8582077;34;20272;-72
2021/08/31 17:14:43;;;;;;;7.20;4.57;;;;;;;22.93;44.66;101189.13;8605327;34;20764;-72
2021/08/31 17:19:46;;;;;;;8.30;4.35;;;;;;;22.58;45.29;101193.41;8605544;34;20236;-72
2021/08/31 17:24:49;;;;;;;5.82;3.75;;;;;;;22.03;46.60;101198.03;8605105;34;22418;-71
2021/08/31 17:29:54;;;;;;;9.27;4.70;;;;;;;21.53;47.84;101202.88;8606664;34;20181;-72
2021/08/31 17:34:57;;;;;;;8.20;4.32;;;;;;;20.96;49.31;101211.19;8581590;34;20149;-73
2021/08/31 17:40:01;;;;;;;7.93;4.03;;;;;;;20.46;50.05;101209.47;8603551;34;20154;-72
2021/08/31 17:45:07;;;;;;;6.20;3.90;;;;;;;20.07;51.60;101216.34;8603896;34;20331;-72
2021/08/31 17:50:10;;;;;;;8.93;4.10;;;;;;;19.75;53.31;101217.13;8603460;34;20229;-72
2021/08/31 17:55:14;;;;;;;5.22;3.92;;;;;;;19.39;53.89;101227.28;8602350;34;20133;-72
2021/08/31 18:00:19;;;;;;;8.25;4.20;;;;;;;19.17;54.38;101226.84;8602734;34;20192;-73
2021/08/31 18:05:22;;;;;;;6.45;4.18;;;;;;;19.01;54.92;101232.19;8603054;34;21482;-72
2021/08/31 18:10:25;;;;;;;8.02;4.07;;;;;;;18.80;55.63;101241.53;8603180;34;20189;-72
2021/08/31 18:15:30;;;;;;;8.52;4.38;;;;;;;18.63;56.25;101242.41;8602282;34;20336;-72
2021/08/31 18:20:33;;;;;;;12.00;5.05;;;;;;;18.30;57.41;101255.69;8601896;34;20172;-73
2021/08/31 18:25:36;;;;;;;7.30;4.57;;;;;;;18.27;58.11;101257.84;8601226;34;20185;-73
2021/08/31 18:30:41;;;;;;;7.93;4.22;;;;;;;18.14;58.67;101269.09;8603071;34;20327;-72
2021/08/31 18:35:45;;;;;;;7.85;4.75;;;;;;;18.00;59.11;101275.06;8601448;34;20659;-72
2021/08/31 18:40:48;;;;;;;6.53;4.40;;;;;;;17.90;59.62;101280.50;8602625;34;20546;-72
2021/08/31 18:45:52;;;;;;;6.47;4.30;;;;;;;17.81;60.09;101289.56;8600587;34;20605;-72
2021/08/31 18:50:55;;;;;;;10.98;4.82;;;;;;;17.70;60.68;101290.59;8600890;34;20177;-71
2021/08/31 18:55:58;;;;;;;7.53;4.50;;;;;;;17.61;60.99;101297.78;8600633;34;20208;-71
2021/08/31 19:01:04;;;;;;;7.10;4.55;;;;;;;17.58;61.33;101295.38;8601256;34;20264;-71
2021/08/31 19:06:07;;;;;;;7.97;4.30;;;;;;;17.42;61.78;101303.28;8600493;34;20153;-71
2021/08/31 19:11:17;;;;;;;9.43;4.63;;;;;;;17.37;61.77;101302.88;8601309;34;20453;-71
2021/08/31 19:16:21;;;;;;;9.32;5.65;;;;;;;17.29;62.27;101313.59;8600845;34;20457;-71
2021/08/31 19:21:25;;;;;;;7.45;4.53;;;;;;;17.25;62.49;101321.16;8597967;34;20189;-71
2021/08/31 19:26:28;;;;;;;10.27;4.55;;;;;;;17.24;62.85;101320.31;8599420;34;20157;-70
2021/08/31 19:31:32;;;;;;;10.77;5.07;;;;;;;17.16;63.07;101328.31;8599825;34;20197;-71
2021/08/31 19:36:35;;;;;;;9.95;4.63;;;;;;;16.95;63.75;101319.44;8596459;34;20134;-71
2021/08/31 19:41:39;;;;;;;11.13;5.05;;;;;;;16.71;64.66;101328.03;8598578;34;20683;-71
2021/08/31 19:46:43;;;;;;;7.85;4.80;;;;;;;16.63;65.07;101336.00;8600924;34;20219;-71
2021/08/31 19:51:46;;;;;;;10.02;5.28;;;;;;;16.54;65.60;101341.28;8599420;34;20181;-71
2021/08/31 19:56:50;;;;;;;9.18;4.82;;;;;;;16.44;65.84;101345.81;8599408;34;20146;-70
2021/08/31 20:01:54;;;;;;;10.23;5.18;;;;;;;16.23;66.71;101355.84;8600268;34;20193;-71
2021/08/31 20:06:57;;;;;;;10.20;5.10;;;;;;;16.07;67.58;101359.06;8601908;34;20149;-70
2021/08/31 20:12:00;;;;;;;11.57;5.30;;;;;;;16.07;67.55;101370.81;8606096;34;20142;-71
2021/08/31 20:17:05;;;;;;;9.02;5.10;;;;;;;16.01;68.18;101362.34;8601032;34;20195;-70
2021/08/31 20:22:08;;;;;;;9.85;5.40;;;;;;;15.92;68.89;101369.44;8604290;34;20185;-71
2021/08/31 20:27:11;;;;;;;7.75;5.03;;;;;;;15.84;69.16;101366.53;8605680;34;20972;-71
2021/08/31 20:32:16;;;;;;;9.43;5.05;;;;;;;15.67;69.99;101370.75;8605434;34;20524;-72
2021/08/31 20:37:19;;;;;;;9.98;4.30;;;;;;;15.64;70.34;101371.84;8605420;34;20189;-72
2021/08/31 20:42:22;;;;;;;12.25;5.20;;;;;;;15.56;70.52;101373.53;8605150;34;21455;-71
2021/08/31 20:47:26;;;;;;;11.00;5.25;;;;;;;15.46;70.99;101370.75;8603045;34;20221;-71
2021/08/31 20:52:29;;;;;;;13.85;5.85;;;;;;;15.39;71.23;101375.84;8604450;34;20212;-71
2021/08/31 20:57:33;;;;;;;10.30;5.25;;;;;;;15.30;71.71;101376.56;8603858;34;20189;-72
2021/08/31 21:02:37;;;;;;;13.75;5.70;;;;;;;15.21;72.07;101377.38;8580342;34;20654;-71
2021/08/31 21:07:40;;;;;;;12.40;5.45;;;;;;;15.18;71.87;101397.44;8604258;34;20146;-71
2021/08/31 21:12:43;;;;;;;14.55;5.88;;;;;;;15.00;72.49;101398.97;8604676;34;20179;-71
2021/08/31 21:17:48;;;;;;;16.73;5.95;;;;;;;14.97;72.46;101402.78;8603557;34;20160;-72
2021/08/31 21:22:53;;;;;;;10.75;5.60;;;;;;;14.89;72.77;101407.13;8602743;34;20276;-72
2021/08/31 21:27:56;;;;;;;12.43;5.80;;;;;;;14.86;72.99;101410.09;8602366;34;20212;-72
2021/08/31 21:33:06;;;;;;;11.68;5.32;;;;;;;14.83;73.16;101414.75;8603337;34;20442;-72
2021/08/31 21:38:09;;;;;;;9.50;5.07;;;;;;;14.77;72.78;101417.13;8603292;34;20233;-71
2021/08/31 21:43:12;;;;;;;14.82;5.18;;;;;;;14.70;73.36;101416.78;8602799;34;20185;-72
2021/08/31 21:48:17;;;;;;;11.48;5.63;;;;;;;14.67;73.53;101427.84;8602936;34;20263;-71
2021/08/31 21:53:20;;;;;;;15.32;6.30;;;;;;;14.55;73.74;101426.16;8603294;34;20203;-72
2021/08/31 21:58:22;;;;;;;12.30;5.32;;;;;;;14.58;73.78;101432.16;8602505;34;20189;-71
2021/08/31 22:03:27;;;;;;;10.52;5.13;;;;;;;14.56;73.63;101439.56;8602971;34;20263;-72
2021/08/31 22:08:30;;;;;;;11.50;5.80;;;;;;;14.56;73.99;101441.38;8602141;34;20185;-72
2021/08/31 22:13:33;;;;;;;11.73;5.60;;;;;;;14.61;73.64;101447.28;8602489;34;20200;-71
2021/08/31 22:18:37;;;;;;;11.18;5.28;;;;;;;14.60;73.68;101456.38;8602108;34;20938;-71
2021/08/31 22:23:40;;;;;;;18.90;5.97;;;;;;;14.56;73.86;101457.59;8602148;34;20936;-72
2021/08/31 22:28:43;;;;;;;10.10;5.32;;;;;;;14.46;74.19;101453.94;8601374;34;20149;-71
2021/08/31 22:33:48;;;;;;;8.23;5.25;;;;;;;14.20;75.27;101454.13;8601756;34;20191;-72
2021/08/31 22:38:51;;;;;;;13.57;5.40;;;;;;;14.22;75.10;101449.47;8601026;34;20275;-72
2021/08/31 22:43:54;;;;;;;9.60;5.78;;;;;;;14.19;75.25;101452.44;8601277;34;20454;-71
2021/08/31 22:48:58;;;;;;;11.30;5.55;;;;;;;14.14;75.24;101451.94;8600689;34;20571;-71
2021/08/31 22:54:01;;;;;;;13.55;5.70;;;;;;;14.07;75.80;101451.56;8600558;34;20227;-72
2021/08/31 22:59:05;;;;;;;13.68;6.22;;;;;;;14.13;75.97;101445.66;8600704;34;20188;-72
2021/08/31 23:04:09;;;;;;;13.52;6.03;;;;;;;14.23;75.65;101462.00;8600619;34;20658;-72
2021/08/31 23:09:12;;;;;;;14.15;5.85;;;;;;;14.40;75.32;101462.53;8600533;34;20706;-72
2021/08/31 23:14:16;;;;;;;10.30;5.28;;;;;;;14.55;75.08;101474.81;8597252;34;20192;-72
2021/08/31 23:19:20;;;;;;;13.57;5.45;;;;;;;14.58;74.77;101479.97;8596716;34;20189;-72